sensor_id;sensor_type;location;lat;lon;timestamp;temperature;humidity
30999;DHT22;20549;50.042;8.968;2024-01-27T00:00:05;8.50;80.90
30999;DHT22;20549;50.042;8.968;2024-01-27T00:02:32;8.40;80.80
30999;DHT22;20549;50.042;8.968;2024-01-27T00:04:59;8.40;80.80
30999;DHT22;20549;50.042;8.968;2024-01-27T00:07:25;8.40;80.90
30999;DHT22;20549;50.042;8.968;2024-01-27T00:09:52;8.30;80.90
30999;DHT22;20549;50.042;8.968;2024-01-27T00:12:18;8.30;81.00
30999;DHT22;20549;50.042;8.968;2024-01-27T00:14:45;8.30;81.20
30999;DHT22;20549;50.042;8.968;2024-01-27T00:17:11;8.30;81.30
30999;DHT22;20549;50.042;8.968;2024-01-27T00:19:38;8.30;81.20
30999;DHT22;20549;50.042;8.968;2024-01-27T00:22:07;8.40;81.10
30999;DHT22;20549;50.042;8.968;2024-01-27T00:24:31;8.40;81.00
30999;DHT22;20549;50.042;8.968;2024-01-27T00:26:58;8.40;80.70
30999;DHT22;20549;50.042;8.968;2024-01-27T00:29:24;8.30;80.30
30999;DHT22;20549;50.042;8.968;2024-01-27T00:31:51;8.30;80.20
30999;DHT22;20549;50.042;8.968;2024-01-27T00:34:18;8.20;80.00
30999;DHT22;20549;50.042;8.968;2024-01-27T00:36:44;8.10;79.90
30999;DHT22;20549;50.042;8.968;2024-01-27T00:39:11;8.10;79.90
30999;DHT22;20549;50.042;8.968;2024-01-27T00:41:37;8.00;79.90
30999;DHT22;20549;50.042;8.968;2024-01-27T00:44:04;7.90;79.80
30999;DHT22;20549;50.042;8.968;2024-01-27T00:46:30;7.80;79.80
30999;DHT22;20549;50.042;8.968;2024-01-27T00:48:57;7.80;79.90
30999;DHT22;20549;50.042;8.968;2024-01-27T00:51:24;7.70;79.90
30999;DHT22;20549;50.042;8.968;2024-01-27T00:53:50;7.60;79.90
30999;DHT22;20549;50.042;8.968;2024-01-27T00:56:17;7.50;80.00
30999;DHT22;20549;50.042;8.968;2024-01-27T00:58:43;7.50;80.00
30999;DHT22;20549;50.042;8.968;2024-01-27T01:01:10;7.40;80.20
30999;DHT22;20549;50.042;8.968;2024-01-27T01:03:37;7.40;80.10
30999;DHT22;20549;50.042;8.968;2024-01-27T01:06:03;7.30;80.20
30999;DHT22;20549;50.042;8.968;2024-01-27T01:08:31;7.20;80.30
30999;DHT22;20549;50.042;8.968;2024-01-27T01:10:56;7.20;80.60
30999;DHT22;20549;50.042;8.968;2024-01-27T01:13:23;7.10;80.70
30999;DHT22;20549;50.042;8.968;2024-01-27T01:15:49;7.00;80.70
30999;DHT22;20549;50.042;8.968;2024-01-27T01:18:16;7.00;80.70
30999;DHT22;20549;50.042;8.968;2024-01-27T01:20:43;6.90;80.80
30999;DHT22;20549;50.042;8.968;2024-01-27T01:23:09;6.90;80.90
30999;DHT22;20549;50.042;8.968;2024-01-27T01:25:36;6.80;81.00
30999;DHT22;20549;50.042;8.968;2024-01-27T01:28:02;6.70;81.10
30999;DHT22;20549;50.042;8.968;2024-01-27T01:30:29;6.60;81.30
30999;DHT22;20549;50.042;8.968;2024-01-27T01:32:56;6.50;81.50
30999;DHT22;20549;50.042;8.968;2024-01-27T01:35:22;6.50;81.70
30999;DHT22;20549;50.042;8.968;2024-01-27T01:37:49;6.40;81.80
30999;DHT22;20549;50.042;8.968;2024-01-27T01:40:15;6.30;81.90
30999;DHT22;20549;50.042;8.968;2024-01-27T01:42:42;6.30;82.10
30999;DHT22;20549;50.042;8.968;2024-01-27T01:45:12;6.20;82.30
30999;DHT22;20549;50.042;8.968;2024-01-27T01:47:35;6.10;82.50
30999;DHT22;20549;50.042;8.968;2024-01-27T01:50:02;6.10;82.70
30999;DHT22;20549;50.042;8.968;2024-01-27T01:52:28;6.00;83.10
30999;DHT22;20549;50.042;8.968;2024-01-27T01:54:55;6.00;83.40
30999;DHT22;20549;50.042;8.968;2024-01-27T01:57:21;6.00;83.80
30999;DHT22;20549;50.042;8.968;2024-01-27T01:59:48;6.00;84.10
30999;DHT22;20549;50.042;8.968;2024-01-27T02:02:15;5.90;84.10
30999;DHT22;20549;50.042;8.968;2024-01-27T02:04:41;5.90;84.10
30999;DHT22;20549;50.042;8.968;2024-01-27T02:07:08;5.90;84.10
30999;DHT22;20549;50.042;8.968;2024-01-27T02:09:34;5.80;84.10
30999;DHT22;20549;50.042;8.968;2024-01-27T02:12:01;5.80;84.20
30999;DHT22;20549;50.042;8.968;2024-01-27T02:14:27;5.70;84.50
30999;DHT22;20549;50.042;8.968;2024-01-27T02:16:54;5.70;84.10
30999;DHT22;20549;50.042;8.968;2024-01-27T02:19:21;5.60;85.10
30999;DHT22;20549;50.042;8.968;2024-01-27T02:21:47;5.60;86.30
30999;DHT22;20549;50.042;8.968;2024-01-27T02:24:14;5.60;85.70
30999;DHT22;20549;50.042;8.968;2024-01-27T02:26:40;5.60;85.80
30999;DHT22;20549;50.042;8.968;2024-01-27T02:29:07;5.50;85.80
30999;DHT22;20549;50.042;8.968;2024-01-27T02:31:34;5.50;85.70
30999;DHT22;20549;50.042;8.968;2024-01-27T02:34:00;5.50;85.70
30999;DHT22;20549;50.042;8.968;2024-01-27T02:36:27;5.40;85.70
30999;DHT22;20549;50.042;8.968;2024-01-27T02:38:53;5.30;85.70
30999;DHT22;20549;50.042;8.968;2024-01-27T02:41:20;5.30;85.80
30999;DHT22;20549;50.042;8.968;2024-01-27T02:43:46;5.20;85.80
30999;DHT22;20549;50.042;8.968;2024-01-27T02:46:13;5.20;85.90
30999;DHT22;20549;50.042;8.968;2024-01-27T02:48:40;5.10;85.90
30999;DHT22;20549;50.042;8.968;2024-01-27T02:51:06;5.00;86.10
30999;DHT22;20549;50.042;8.968;2024-01-27T02:53:33;4.90;86.30
30999;DHT22;20549;50.042;8.968;2024-01-27T02:55:59;4.80;86.50
30999;DHT22;20549;50.042;8.968;2024-01-27T02:58:26;4.80;86.90
30999;DHT22;20549;50.042;8.968;2024-01-27T03:00:53;4.70;87.00
30999;DHT22;20549;50.042;8.968;2024-01-27T03:03:19;4.60;87.30
30999;DHT22;20549;50.042;8.968;2024-01-27T03:05:46;4.60;87.50
30999;DHT22;20549;50.042;8.968;2024-01-27T03:08:12;4.50;87.80
30999;DHT22;20549;50.042;8.968;2024-01-27T03:10:39;4.40;87.90
30999;DHT22;20549;50.042;8.968;2024-01-27T03:13:05;4.40;88.10
30999;DHT22;20549;50.042;8.968;2024-01-27T03:15:32;4.30;88.40
30999;DHT22;20549;50.042;8.968;2024-01-27T03:17:59;4.30;88.70
30999;DHT22;20549;50.042;8.968;2024-01-27T03:20:25;4.20;89.00
30999;DHT22;20549;50.042;8.968;2024-01-27T03:22:52;4.10;89.30
30999;DHT22;20549;50.042;8.968;2024-01-27T03:25:18;4.10;89.70
30999;DHT22;20549;50.042;8.968;2024-01-27T03:27:45;4.00;90.00
30999;DHT22;20549;50.042;8.968;2024-01-27T03:30:12;4.00;90.20
30999;DHT22;20549;50.042;8.968;2024-01-27T03:32:38;4.00;90.40
30999;DHT22;20549;50.042;8.968;2024-01-27T03:35:05;3.90;90.50
30999;DHT22;20549;50.042;8.968;2024-01-27T03:37:31;3.90;90.60
30999;DHT22;20549;50.042;8.968;2024-01-27T03:39:58;4.00;90.80
30999;DHT22;20549;50.042;8.968;2024-01-27T03:42:24;3.90;90.80
30999;DHT22;20549;50.042;8.968;2024-01-27T03:44:51;3.90;90.80
30999;DHT22;20549;50.042;8.968;2024-01-27T03:47:18;3.90;91.10
30999;DHT22;20549;50.042;8.968;2024-01-27T03:49:44;3.90;90.80
30999;DHT22;20549;50.042;8.968;2024-01-27T03:52:11;3.80;90.90
30999;DHT22;20549;50.042;8.968;2024-01-27T03:54:38;3.80;91.00
30999;DHT22;20549;50.042;8.968;2024-01-27T03:57:04;3.80;91.10
30999;DHT22;20549;50.042;8.968;2024-01-27T03:59:31;3.80;91.10
30999;DHT22;20549;50.042;8.968;2024-01-27T04:01:57;3.70;91.30
30999;DHT22;20549;50.042;8.968;2024-01-27T04:04:24;3.70;91.50
30999;DHT22;20549;50.042;8.968;2024-01-27T04:06:50;3.70;91.70
30999;DHT22;20549;50.042;8.968;2024-01-27T04:09:17;3.60;91.90
30999;DHT22;20549;50.042;8.968;2024-01-27T04:11:44;3.70;92.10
30999;DHT22;20549;50.042;8.968;2024-01-27T04:14:10;3.60;92.30
30999;DHT22;20549;50.042;8.968;2024-01-27T04:16:37;3.60;92.30
30999;DHT22;20549;50.042;8.968;2024-01-27T04:19:03;3.60;92.40
30999;DHT22;20549;50.042;8.968;2024-01-27T04:21:30;3.60;92.60
30999;DHT22;20549;50.042;8.968;2024-01-27T04:23:56;3.60;92.60
30999;DHT22;20549;50.042;8.968;2024-01-27T04:26:23;3.60;92.70
30999;DHT22;20549;50.042;8.968;2024-01-27T04:28:50;3.60;92.80
30999;DHT22;20549;50.042;8.968;2024-01-27T04:31:16;3.60;92.90
30999;DHT22;20549;50.042;8.968;2024-01-27T04:33:43;3.60;93.00
30999;DHT22;20549;50.042;8.968;2024-01-27T04:36:09;3.60;93.10
30999;DHT22;20549;50.042;8.968;2024-01-27T04:38:36;3.60;93.20
30999;DHT22;20549;50.042;8.968;2024-01-27T04:41:03;3.60;93.20
30999;DHT22;20549;50.042;8.968;2024-01-27T04:43:29;3.50;93.20
30999;DHT22;20549;50.042;8.968;2024-01-27T04:45:56;3.50;93.30
30999;DHT22;20549;50.042;8.968;2024-01-27T04:48:22;3.50;93.40
30999;DHT22;20549;50.042;8.968;2024-01-27T04:50:49;3.50;93.60
30999;DHT22;20549;50.042;8.968;2024-01-27T04:53:15;3.50;93.80
30999;DHT22;20549;50.042;8.968;2024-01-27T04:55:42;3.50;94.10
30999;DHT22;20549;50.042;8.968;2024-01-27T04:58:09;3.50;94.30
30999;DHT22;20549;50.042;8.968;2024-01-27T05:00:35;3.50;94.40
30999;DHT22;20549;50.042;8.968;2024-01-27T05:03:02;3.50;94.50
30999;DHT22;20549;50.042;8.968;2024-01-27T05:05:28;3.50;94.50
30999;DHT22;20549;50.042;8.968;2024-01-27T05:07:55;3.50;94.60
30999;DHT22;20549;50.042;8.968;2024-01-27T05:10:22;3.50;94.60
30999;DHT22;20549;50.042;8.968;2024-01-27T05:12:48;3.50;94.70
30999;DHT22;20549;50.042;8.968;2024-01-27T05:15:15;3.50;94.70
30999;DHT22;20549;50.042;8.968;2024-01-27T05:17:41;3.50;94.70
30999;DHT22;20549;50.042;8.968;2024-01-27T05:20:08;3.50;94.70
30999;DHT22;20549;50.042;8.968;2024-01-27T05:22:34;3.50;94.70
30999;DHT22;20549;50.042;8.968;2024-01-27T05:25:01;3.50;94.80
30999;DHT22;20549;50.042;8.968;2024-01-27T05:27:28;3.50;94.80
30999;DHT22;20549;50.042;8.968;2024-01-27T05:29:54;3.50;94.90
30999;DHT22;20549;50.042;8.968;2024-01-27T05:32:21;3.50;94.90
30999;DHT22;20549;50.042;8.968;2024-01-27T05:34:47;3.40;95.00
30999;DHT22;20549;50.042;8.968;2024-01-27T05:37:14;3.40;95.10
30999;DHT22;20549;50.042;8.968;2024-01-27T05:39:41;3.40;95.20
30999;DHT22;20549;50.042;8.968;2024-01-27T05:42:07;3.40;95.20
30999;DHT22;20549;50.042;8.968;2024-01-27T05:44:34;3.40;95.20
30999;DHT22;20549;50.042;8.968;2024-01-27T05:47:00;3.40;95.30
30999;DHT22;20549;50.042;8.968;2024-01-27T05:49:27;3.40;95.20
30999;DHT22;20549;50.042;8.968;2024-01-27T05:51:53;3.30;95.20
30999;DHT22;20549;50.042;8.968;2024-01-27T05:54:20;3.30;95.30
30999;DHT22;20549;50.042;8.968;2024-01-27T05:56:47;3.30;95.30
30999;DHT22;20549;50.042;8.968;2024-01-27T05:59:13;3.20;95.30
30999;DHT22;20549;50.042;8.968;2024-01-27T06:01:40;3.20;95.50
30999;DHT22;20549;50.042;8.968;2024-01-27T06:04:06;3.20;95.70
30999;DHT22;20549;50.042;8.968;2024-01-27T06:06:33;3.10;95.90
30999;DHT22;20549;50.042;8.968;2024-01-27T06:09:00;3.10;96.10
30999;DHT22;20549;50.042;8.968;2024-01-27T06:11:26;3.10;96.20
30999;DHT22;20549;50.042;8.968;2024-01-27T06:13:53;3.10;96.30
30999;DHT22;20549;50.042;8.968;2024-01-27T06:16:19;3.10;96.40
30999;DHT22;20549;50.042;8.968;2024-01-27T06:18:46;3.10;96.40
30999;DHT22;20549;50.042;8.968;2024-01-27T06:21:12;3.10;96.40
30999;DHT22;20549;50.042;8.968;2024-01-27T06:23:39;3.10;96.60
30999;DHT22;20549;50.042;8.968;2024-01-27T06:26:09;3.10;96.60
30999;DHT22;20549;50.042;8.968;2024-01-27T06:28:35;3.10;96.60
30999;DHT22;20549;50.042;8.968;2024-01-27T06:31:02;3.10;96.70
30999;DHT22;20549;50.042;8.968;2024-01-27T06:33:29;3.10;96.70
30999;DHT22;20549;50.042;8.968;2024-01-27T06:35:55;3.10;96.80
30999;DHT22;20549;50.042;8.968;2024-01-27T06:38:22;3.10;96.80
30999;DHT22;20549;50.042;8.968;2024-01-27T06:40:48;3.10;96.90
30999;DHT22;20549;50.042;8.968;2024-01-27T06:43:15;3.10;96.90
30999;DHT22;20549;50.042;8.968;2024-01-27T06:45:41;3.10;96.90
30999;DHT22;20549;50.042;8.968;2024-01-27T06:48:08;3.10;97.00
30999;DHT22;20549;50.042;8.968;2024-01-27T06:50:35;3.10;97.10
30999;DHT22;20549;50.042;8.968;2024-01-27T06:53:01;3.10;97.10
30999;DHT22;20549;50.042;8.968;2024-01-27T06:55:28;3.10;97.20
30999;DHT22;20549;50.042;8.968;2024-01-27T06:57:54;3.10;97.30
30999;DHT22;20549;50.042;8.968;2024-01-27T07:00:21;3.10;97.30
30999;DHT22;20549;50.042;8.968;2024-01-27T07:02:48;3.10;97.30
30999;DHT22;20549;50.042;8.968;2024-01-27T07:05:14;3.10;97.30
30999;DHT22;20549;50.042;8.968;2024-01-27T07:07:41;3.10;97.30
30999;DHT22;20549;50.042;8.968;2024-01-27T07:10:07;3.10;97.20
30999;DHT22;20549;50.042;8.968;2024-01-27T07:12:34;3.00;97.00
30999;DHT22;20549;50.042;8.968;2024-01-27T07:15:01;3.00;97.10
30999;DHT22;20549;50.042;8.968;2024-01-27T07:17:27;3.00;97.20
30999;DHT22;20549;50.042;8.968;2024-01-27T07:19:54;3.00;97.40
30999;DHT22;20549;50.042;8.968;2024-01-27T07:22:20;3.00;97.80
30999;DHT22;20549;50.042;8.968;2024-01-27T07:24:47;3.00;98.30
30999;DHT22;20549;50.042;8.968;2024-01-27T07:27:13;3.10;98.90
30999;DHT22;20549;50.042;8.968;2024-01-27T07:29:40;3.20;99.50
30999;DHT22;20549;50.042;8.968;2024-01-27T07:32:07;3.30;99.90
30999;DHT22;20549;50.042;8.968;2024-01-27T07:34:36;3.40;99.90
30999;DHT22;20549;50.042;8.968;2024-01-27T07:37:03;3.60;99.90
30999;DHT22;20549;50.042;8.968;2024-01-27T07:39:29;3.80;99.90
30999;DHT22;20549;50.042;8.968;2024-01-27T07:41:56;4.10;99.90
30999;DHT22;20549;50.042;8.968;2024-01-27T07:44:22;4.40;99.90
30999;DHT22;20549;50.042;8.968;2024-01-27T07:46:49;4.80;99.90
30999;DHT22;20549;50.042;8.968;2024-01-27T07:49:16;5.20;99.90
30999;DHT22;20549;50.042;8.968;2024-01-27T07:51:42;5.70;99.90
30999;DHT22;20549;50.042;8.968;2024-01-27T07:54:09;6.10;99.90
30999;DHT22;20549;50.042;8.968;2024-01-27T07:56:35;6.60;99.90
30999;DHT22;20549;50.042;8.968;2024-01-27T07:59:02;7.10;99.90
30999;DHT22;20549;50.042;8.968;2024-01-27T08:01:28;7.50;99.90
30999;DHT22;20549;50.042;8.968;2024-01-27T08:03:55;8.00;99.90
30999;DHT22;20549;50.042;8.968;2024-01-27T08:06:31;8.50;99.60
30999;DHT22;20549;50.042;8.968;2024-01-27T08:08:48;9.00;98.80
30999;DHT22;20549;50.042;8.968;2024-01-27T08:11:15;9.40;97.80
30999;DHT22;20549;50.042;8.968;2024-01-27T08:13:41;9.90;96.90
30999;DHT22;20549;50.042;8.968;2024-01-27T08:16:08;10.40;95.70
30999;DHT22;20549;50.042;8.968;2024-01-27T08:18:40;10.80;94.50
30999;DHT22;20549;50.042;8.968;2024-01-27T08:21:04;11.30;93.30
30999;DHT22;20549;50.042;8.968;2024-01-27T08:23:30;11.60;92.30
30999;DHT22;20549;50.042;8.968;2024-01-27T08:25:57;12.00;91.30
30999;DHT22;20549;50.042;8.968;2024-01-27T08:28:24;12.40;90.60
30999;DHT22;20549;50.042;8.968;2024-01-27T08:30:50;12.80;89.10
30999;DHT22;20549;50.042;8.968;2024-01-27T08:33:17;13.10;87.10
30999;DHT22;20549;50.042;8.968;2024-01-27T08:35:45;13.40;85.20
30999;DHT22;20549;50.042;8.968;2024-01-27T08:38:10;13.70;83.80
30999;DHT22;20549;50.042;8.968;2024-01-27T08:40:37;13.80;82.20
30999;DHT22;20549;50.042;8.968;2024-01-27T08:43:03;13.90;79.90
30999;DHT22;20549;50.042;8.968;2024-01-27T08:45:30;13.90;77.90
30999;DHT22;20549;50.042;8.968;2024-01-27T08:47:56;13.80;76.50
30999;DHT22;20549;50.042;8.968;2024-01-27T08:50:23;13.60;75.70
30999;DHT22;20549;50.042;8.968;2024-01-27T08:52:49;13.40;74.70
30999;DHT22;20549;50.042;8.968;2024-01-27T08:55:16;13.20;74.20
30999;DHT22;20549;50.042;8.968;2024-01-27T08:57:43;12.90;74.30
30999;DHT22;20549;50.042;8.968;2024-01-27T09:00:09;12.70;74.60
30999;DHT22;20549;50.042;8.968;2024-01-27T09:02:36;12.50;74.50
30999;DHT22;20549;50.042;8.968;2024-01-27T09:05:02;12.20;74.30
30999;DHT22;20549;50.042;8.968;2024-01-27T09:07:29;12.00;74.10
30999;DHT22;20549;50.042;8.968;2024-01-27T09:09:56;11.70;74.20
30999;DHT22;20549;50.042;8.968;2024-01-27T09:12:22;11.50;74.10
30999;DHT22;20549;50.042;8.968;2024-01-27T09:14:49;11.20;74.00
30999;DHT22;20549;50.042;8.968;2024-01-27T09:17:15;11.00;74.10
30999;DHT22;20549;50.042;8.968;2024-01-27T09:19:42;10.70;74.30
30999;DHT22;20549;50.042;8.968;2024-01-27T09:22:09;10.40;74.30
30999;DHT22;20549;50.042;8.968;2024-01-27T09:24:35;10.20;74.60
30999;DHT22;20549;50.042;8.968;2024-01-27T09:27:02;9.90;74.70
30999;DHT22;20549;50.042;8.968;2024-01-27T09:29:29;9.70;75.00
30999;DHT22;20549;50.042;8.968;2024-01-27T09:31:55;9.50;75.40
30999;DHT22;20549;50.042;8.968;2024-01-27T09:34:22;9.30;75.80
30999;DHT22;20549;50.042;8.968;2024-01-27T09:36:48;9.10;76.20
30999;DHT22;20549;50.042;8.968;2024-01-27T09:39:15;8.90;76.60
30999;DHT22;20549;50.042;8.968;2024-01-27T09:41:41;8.70;77.10
30999;DHT22;20549;50.042;8.968;2024-01-27T09:44:08;8.60;77.40
30999;DHT22;20549;50.042;8.968;2024-01-27T09:46:34;8.40;77.70
30999;DHT22;20549;50.042;8.968;2024-01-27T09:49:01;8.30;78.10
30999;DHT22;20549;50.042;8.968;2024-01-27T09:51:28;8.30;78.60
30999;DHT22;20549;50.042;8.968;2024-01-27T09:53:54;8.20;79.00
30999;DHT22;20549;50.042;8.968;2024-01-27T09:56:21;8.10;79.40
30999;DHT22;20549;50.042;8.968;2024-01-27T09:58:47;8.10;79.90
30999;DHT22;20549;50.042;8.968;2024-01-27T10:01:17;8.00;80.20
30999;DHT22;20549;50.042;8.968;2024-01-27T10:03:43;8.00;80.60
30999;DHT22;20549;50.042;8.968;2024-01-27T10:06:10;8.00;81.00
30999;DHT22;20549;50.042;8.968;2024-01-27T10:08:36;8.00;81.30
30999;DHT22;20549;50.042;8.968;2024-01-27T10:11:07;7.90;81.50
30999;DHT22;20549;50.042;8.968;2024-01-27T10:13:33;8.00;81.70
30999;DHT22;20549;50.042;8.968;2024-01-27T10:16:08;8.00;81.90
30999;DHT22;20549;50.042;8.968;2024-01-27T10:18:32;8.00;82.10
30999;DHT22;20549;50.042;8.968;2024-01-27T10:20:58;8.00;82.50
30999;DHT22;20549;50.042;8.968;2024-01-27T10:23:25;8.00;82.70
30999;DHT22;20549;50.042;8.968;2024-01-27T10:25:51;8.10;83.00
30999;DHT22;20549;50.042;8.968;2024-01-27T10:28:18;8.10;83.30
30999;DHT22;20549;50.042;8.968;2024-01-27T10:30:44;8.20;83.60
30999;DHT22;20549;50.042;8.968;2024-01-27T10:33:11;8.30;84.00
30999;DHT22;20549;50.042;8.968;2024-01-27T10:35:37;8.30;84.20
30999;DHT22;20549;50.042;8.968;2024-01-27T10:38:04;8.50;84.20
30999;DHT22;20549;50.042;8.968;2024-01-27T10:40:31;8.60;84.20
30999;DHT22;20549;50.042;8.968;2024-01-27T10:45:27;8.80;84.10
30999;DHT22;20549;50.042;8.968;2024-01-27T10:47:53;8.90;84.10
30999;DHT22;20549;50.042;8.968;2024-01-27T10:50:20;9.00;84.10
30999;DHT22;20549;50.042;8.968;2024-01-27T10:52:46;9.10;84.00
30999;DHT22;20549;50.042;8.968;2024-01-27T10:55:13;9.20;83.70
30999;DHT22;20549;50.042;8.968;2024-01-27T10:57:40;9.30;83.50
30999;DHT22;20549;50.042;8.968;2024-01-27T11:00:06;9.40;83.30
30999;DHT22;20549;50.042;8.968;2024-01-27T11:02:33;9.50;83.20
30999;DHT22;20549;50.042;8.968;2024-01-27T11:05:03;9.50;83.00
30999;DHT22;20549;50.042;8.968;2024-01-27T11:07:33;9.60;82.60
30999;DHT22;20549;50.042;8.968;2024-01-27T11:09:59;9.70;82.60
30999;DHT22;20549;50.042;8.968;2024-01-27T11:12:25;9.70;82.40
30999;DHT22;20549;50.042;8.968;2024-01-27T11:14:52;9.80;81.80
30999;DHT22;20549;50.042;8.968;2024-01-27T11:17:19;9.80;81.50
30999;DHT22;20549;50.042;8.968;2024-01-27T11:19:45;9.80;81.20
30999;DHT22;20549;50.042;8.968;2024-01-27T11:22:23;9.80;81.10
30999;DHT22;20549;50.042;8.968;2024-01-27T11:24:44;9.90;81.30
30999;DHT22;20549;50.042;8.968;2024-01-27T11:27:10;9.90;81.40
30999;DHT22;20549;50.042;8.968;2024-01-27T11:29:46;10.00;81.40
30999;DHT22;20549;50.042;8.968;2024-01-27T11:32:04;10.00;81.00
30999;DHT22;20549;50.042;8.968;2024-01-27T11:34:46;10.00;81.00
30999;DHT22;20549;50.042;8.968;2024-01-27T11:37:15;10.10;80.90
30999;DHT22;20549;50.042;8.968;2024-01-27T11:39:41;10.10;81.00
30999;DHT22;20549;50.042;8.968;2024-01-27T11:42:13;10.20;80.90
30999;DHT22;20549;50.042;8.968;2024-01-27T11:44:40;10.20;80.60
30999;DHT22;20549;50.042;8.968;2024-01-27T11:47:13;10.20;80.40
30999;DHT22;20549;50.042;8.968;2024-01-27T11:49:33;10.20;80.20
30999;DHT22;20549;50.042;8.968;2024-01-27T11:52:00;10.20;80.00
30999;DHT22;20549;50.042;8.968;2024-01-27T11:54:26;10.20;79.90
30999;DHT22;20549;50.042;8.968;2024-01-27T11:56:53;10.20;79.90
30999;DHT22;20549;50.042;8.968;2024-01-27T11:59:20;10.30;79.80
30999;DHT22;20549;50.042;8.968;2024-01-27T12:01:46;10.20;79.60
30999;DHT22;20549;50.042;8.968;2024-01-27T12:04:12;10.30;79.50
30999;DHT22;20549;50.042;8.968;2024-01-27T12:06:39;10.30;79.50
30999;DHT22;20549;50.042;8.968;2024-01-27T12:09:06;10.30;79.40
30999;DHT22;20549;50.042;8.968;2024-01-27T12:11:32;10.30;79.20
30999;DHT22;20549;50.042;8.968;2024-01-27T12:13:59;10.30;79.20
30999;DHT22;20549;50.042;8.968;2024-01-27T12:16:25;10.30;78.90
30999;DHT22;20549;50.042;8.968;2024-01-27T12:18:52;10.40;79.20
30999;DHT22;20549;50.042;8.968;2024-01-27T12:21:21;10.40;78.90
30999;DHT22;20549;50.042;8.968;2024-01-27T12:23:51;10.40;78.80
30999;DHT22;20549;50.042;8.968;2024-01-27T12:26:17;10.40;78.80
30999;DHT22;20549;50.042;8.968;2024-01-27T12:28:47;10.40;78.50
30999;DHT22;20549;50.042;8.968;2024-01-27T12:31:16;10.40;78.40
30999;DHT22;20549;50.042;8.968;2024-01-27T12:33:47;10.40;78.40
30999;DHT22;20549;50.042;8.968;2024-01-27T12:36:09;10.40;78.20
30999;DHT22;20549;50.042;8.968;2024-01-27T12:38:35;10.50;78.20
30999;DHT22;20549;50.042;8.968;2024-01-27T12:41:02;10.50;78.20
30999;DHT22;20549;50.042;8.968;2024-01-27T12:43:29;10.50;77.90
30999;DHT22;20549;50.042;8.968;2024-01-27T12:45:55;10.50;77.70
30999;DHT22;20549;50.042;8.968;2024-01-27T12:48:22;10.60;77.50
30999;DHT22;20549;50.042;8.968;2024-01-27T12:50:48;10.60;77.50
30999;DHT22;20549;50.042;8.968;2024-01-27T12:53:15;10.60;77.20
30999;DHT22;20549;50.042;8.968;2024-01-27T12:55:42;10.60;77.10
30999;DHT22;20549;50.042;8.968;2024-01-27T12:58:08;10.70;77.10
30999;DHT22;20549;50.042;8.968;2024-01-27T13:00:35;10.70;77.00
30999;DHT22;20549;50.042;8.968;2024-01-27T13:03:01;10.70;76.90
30999;DHT22;20549;50.042;8.968;2024-01-27T13:05:28;10.70;76.70
30999;DHT22;20549;50.042;8.968;2024-01-27T13:07:54;10.70;76.60
30999;DHT22;20549;50.042;8.968;2024-01-27T13:10:21;10.70;76.40
30999;DHT22;20549;50.042;8.968;2024-01-27T13:12:48;10.60;76.20
30999;DHT22;20549;50.042;8.968;2024-01-27T13:15:14;10.60;76.10
30999;DHT22;20549;50.042;8.968;2024-01-27T13:17:41;10.60;76.10
30999;DHT22;20549;50.042;8.968;2024-01-27T13:20:07;10.60;75.70
30999;DHT22;20549;50.042;8.968;2024-01-27T13:22:34;10.60;76.40
30999;DHT22;20549;50.042;8.968;2024-01-27T13:25:01;10.60;75.50
30999;DHT22;20549;50.042;8.968;2024-01-27T13:27:27;10.50;75.30
30999;DHT22;20549;50.042;8.968;2024-01-27T13:29:54;10.50;75.10
30999;DHT22;20549;50.042;8.968;2024-01-27T13:32:20;10.50;75.30
30999;DHT22;20549;50.042;8.968;2024-01-27T13:34:47;10.50;75.10
30999;DHT22;20549;50.042;8.968;2024-01-27T13:37:14;10.40;74.90
30999;DHT22;20549;50.042;8.968;2024-01-27T13:39:40;10.40;75.00
30999;DHT22;20549;50.042;8.968;2024-01-27T13:42:07;10.40;74.80
30999;DHT22;20549;50.042;8.968;2024-01-27T13:44:34;10.40;74.80
30999;DHT22;20549;50.042;8.968;2024-01-27T13:47:00;10.40;74.70
30999;DHT22;20549;50.042;8.968;2024-01-27T13:49:26;10.40;74.80
30999;DHT22;20549;50.042;8.968;2024-01-27T13:51:53;10.40;74.80
30999;DHT22;20549;50.042;8.968;2024-01-27T13:54:20;10.30;74.60
30999;DHT22;20549;50.042;8.968;2024-01-27T13:56:46;10.30;74.60
30999;DHT22;20549;50.042;8.968;2024-01-27T13:59:13;10.30;74.60
30999;DHT22;20549;50.042;8.968;2024-01-27T14:04:08;10.30;74.60
30999;DHT22;20549;50.042;8.968;2024-01-27T14:06:35;10.20;74.50
30999;DHT22;20549;50.042;8.968;2024-01-27T14:09:02;10.20;74.20
30999;DHT22;20549;50.042;8.968;2024-01-27T14:11:28;10.20;74.30
30999;DHT22;20549;50.042;8.968;2024-01-27T14:13:55;10.10;74.30
30999;DHT22;20549;50.042;8.968;2024-01-27T14:16:21;10.10;74.30
30999;DHT22;20549;50.042;8.968;2024-01-27T14:18:48;10.10;74.30
30999;DHT22;20549;50.042;8.968;2024-01-27T14:21:15;10.10;74.40
30999;DHT22;20549;50.042;8.968;2024-01-27T14:23:41;10.10;74.40
30999;DHT22;20549;50.042;8.968;2024-01-27T14:26:08;10.10;74.30
30999;DHT22;20549;50.042;8.968;2024-01-27T14:28:34;10.00;74.10
30999;DHT22;20549;50.042;8.968;2024-01-27T14:31:01;10.00;74.00
30999;DHT22;20549;50.042;8.968;2024-01-27T14:33:28;10.00;73.90
30999;DHT22;20549;50.042;8.968;2024-01-27T14:35:54;9.90;74.00
30999;DHT22;20549;50.042;8.968;2024-01-27T14:38:21;9.90;74.00
30999;DHT22;20549;50.042;8.968;2024-01-27T14:40:47;9.90;74.00
30999;DHT22;20549;50.042;8.968;2024-01-27T14:43:14;9.90;74.10
30999;DHT22;20549;50.042;8.968;2024-01-27T14:45:41;9.80;73.30
30999;DHT22;20549;50.042;8.968;2024-01-27T14:48:07;9.80;74.00
30999;DHT22;20549;50.042;8.968;2024-01-27T14:50:34;9.80;74.00
30999;DHT22;20549;50.042;8.968;2024-01-27T14:53:00;9.70;73.90
30999;DHT22;20549;50.042;8.968;2024-01-27T14:55:27;9.70;73.90
30999;DHT22;20549;50.042;8.968;2024-01-27T14:57:53;9.60;73.80
30999;DHT22;20549;50.042;8.968;2024-01-27T15:00:20;9.60;73.70
30999;DHT22;20549;50.042;8.968;2024-01-27T15:02:46;9.50;74.60
30999;DHT22;20549;50.042;8.968;2024-01-27T15:05:13;9.50;73.90
30999;DHT22;20549;50.042;8.968;2024-01-27T15:07:40;9.40;73.80
30999;DHT22;20549;50.042;8.968;2024-01-27T15:10:06;9.40;73.90
30999;DHT22;20549;50.042;8.968;2024-01-27T15:12:33;9.40;74.00
30999;DHT22;20549;50.042;8.968;2024-01-27T15:14:59;9.30;74.00
30999;DHT22;20549;50.042;8.968;2024-01-27T15:17:26;9.30;73.90
30999;DHT22;20549;50.042;8.968;2024-01-27T15:19:53;9.20;73.90
30999;DHT22;20549;50.042;8.968;2024-01-27T15:22:19;9.20;74.10
30999;DHT22;20549;50.042;8.968;2024-01-27T15:24:46;9.10;74.20
30999;DHT22;20549;50.042;8.968;2024-01-27T15:27:12;9.10;74.30
30999;DHT22;20549;50.042;8.968;2024-01-27T15:29:39;9.10;74.30
30999;DHT22;20549;50.042;8.968;2024-01-27T15:32:05;9.00;74.20
30999;DHT22;20549;50.042;8.968;2024-01-27T15:34:32;8.90;74.10
30999;DHT22;20549;50.042;8.968;2024-01-27T15:36:59;8.90;74.50
30999;DHT22;20549;50.042;8.968;2024-01-27T15:39:25;8.90;74.10
30999;DHT22;20549;50.042;8.968;2024-01-27T15:41:52;8.80;74.10